Aviation Digital Data Service (ADDS)

Output produced by METARs form (1102 UTC 13 December 2017)
found at http://www.aviationweather.gov/adds/metars/
 
LQBK 131030Z 32005KT 9999 RA BKN008 OVC017 02/01 Q1021 NOSIG
TAF LQBK 130500Z 1306/1406 05005KT 4000 RA BKN015 OVC033 TX06/1306Z TN02/1400Z 
     BECMG 1314/1316 9999 NSW SCT015 BKN040 
     BECMG 1403/1405 20012KT
       
LQMO 131030Z 15010KT 9999 RA FEW030 BKN040 OVC050 13/11 Q1015
TAF LQMO 130500Z 1306/1406 15008KT 9999 SCT040 BKN070 TX12/1312Z TN06/1406Z 
     TEMPO 1306/1317 RA 
     PROB40 
     TEMPO 1306/1312 18015G25KT 
     PROB40 
     TEMPO 1306/1315 5000 SHRA FEW033TCU BKN040
       
LQSA 131030Z 28003KT 240V340 7000 RA FEW010 BKN025 OVC040 06/06 Q1017 NOSIG
TAF LQSA 130500Z 1306/1406 15012KT 9999 -RA SCT030 BKN045 TX11/1306Z TNM01/1404Z 
     BECMG 1306/1309 27006KT RA 
     BECMG 1312/1315 3000 SN BKN012 OVC025 
     BECMG 1318/1320 9999 NSW SCT012 BKN030
       
LQTZ 131030Z 29005KT 7000 -RA BKN006 OVC015 03/03 Q1019
TAF LQTZ 130500Z 1306/1406 30005KT 9999 BKN040 TX07/1306Z TN01/1406Z 
     TEMPO 1306/1317 4000 RA BKN015 OVC030 
     PROB30 
     TEMPO 1315/1317 2500 RASN BKN010 OVC025 
     TEMPO 1402/1406 3000 BR BKN007 
     PROB30 1403/1406 0600 FG BKN003